Time;durP1;ratioP1;P1;durP2;ratioP2;P2;SDS_P1;SDS_P2;PMS_P1;PMS_P2;Temp;Humidity;BMP_temperature;BMP_pressure;BME280_temperature;BME280_humidity;BME280_pressure;Samples;Min_cycle;Max_cycle;Signal;HPM_P1;HPM_P2
2023/04/18 00:00:32;;;;;;;5.10;1.20;;;;;;;7.99;100.00;100865.59;105379;1260;74414;-57
2023/04/18 00:03:01;;;;;;;3.20;1.40;;;;;;;7.96;100.00;100867.98;105383;1262;68305;-56
2023/04/18 00:05:32;;;;;;;3.30;1.60;;;;;;;7.94;100.00;100868.02;105380;1260;73917;-54
2023/04/18 00:08:01;;;;;;;4.80;1.30;;;;;;;7.90;100.00;100867.04;105225;1259;60645;-55
2023/04/18 00:10:30;;;;;;;4.50;1.30;;;;;;;7.88;100.00;100864.50;105263;1262;60693;-55
2023/04/18 00:12:59;;;;;;;6.60;1.90;;;;;;;7.84;100.00;100858.95;105198;1262;74349;-54
2023/04/18 00:15:29;;;;;;;3.70;1.30;;;;;;;7.81;100.00;100860.07;105320;1262;67432;-54
2023/04/18 00:17:57;;;;;;;4.20;1.60;;;;;;;7.79;100.00;100855.04;105190;1260;72842;-53
2023/04/18 00:20:26;;;;;;;4.90;1.30;;;;;;;7.79;100.00;100861.54;105671;1259;61141;-58
2023/04/18 00:22:54;;;;;;;3.60;1.20;;;;;;;7.78;100.00;100859.14;105330;1259;61278;-55
2023/04/18 00:25:23;;;;;;;4.20;1.20;;;;;;;7.78;100.00;100859.89;105327;1262;75386;-54
2023/04/18 00:27:51;;;;;;;4.40;1.60;;;;;;;7.78;100.00;100858.29;105362;1264;67638;-55
2023/04/18 00:30:20;;;;;;;10.10;3.60;;;;;;;7.79;100.00;100858.58;105414;1260;73181;-54
2023/04/18 00:32:48;;;;;;;4.50;1.40;;;;;;;7.77;100.00;100856.65;104516;1262;1197279;-57
2023/04/18 00:35:18;;;;;;;4.50;1.30;;;;;;;7.75;100.00;100856.67;105384;1262;61646;-55
2023/04/18 00:37:46;;;;;;;5.00;1.20;;;;;;;7.75;100.00;100859.66;105347;1262;75292;-54
2023/04/18 00:40:16;;;;;;;3.00;1.00;;;;;;;7.75;100.00;100861.21;105290;1260;68846;-54
2023/04/18 00:42:45;;;;;;;4.20;1.50;;;;;;;7.76;100.00;100856.11;105493;1262;74456;-58
2023/04/18 00:45:14;;;;;;;4.80;1.30;;;;;;;7.76;100.00;100851.80;105375;1262;60537;-55
2023/04/18 00:47:43;;;;;;;4.00;1.50;;;;;;;7.76;100.00;100848.92;105455;1258;62719;-55
2023/04/18 00:50:11;;;;;;;5.70;1.60;;;;;;;7.77;100.00;100848.36;105455;1262;75417;-55
2023/04/18 00:52:41;;;;;;;2.70;1.40;;;;;;;7.78;100.00;100846.35;105242;1260;69195;-56
2023/04/18 00:55:10;;;;;;;10.10;2.10;;;;;;;7.80;100.00;100843.24;104971;1265;73184;-54
2023/04/18 00:57:38;;;;;;;5.30;1.60;;;;;;;7.80;100.00;100838.58;105227;1262;60416;-54
2023/04/18 01:00:09;;;;;;;3.30;1.30;;;;;;;7.81;100.00;100836.55;105498;1258;61311;-54
2023/04/18 01:02:39;;;;;;;4.50;1.30;;;;;;;7.82;100.00;100834.73;105821;1259;74517;-58
2023/04/18 01:05:08;;;;;;;3.40;1.50;;;;;;;7.83;100.00;100836.61;105156;1264;67894;-53
2023/04/18 01:07:40;;;;;;;7.20;1.80;;;;;;;7.85;100.00;100835.50;105374;1260;74205;-56
2023/04/18 01:10:09;;;;;;;4.30;1.50;;;;;;;7.88;100.00;100830.91;105410;1259;61537;-58
2023/04/18 01:12:39;;;;;;;5.80;1.60;;;;;;;7.89;100.00;100831.09;105151;1262;60367;-56
2023/04/18 01:15:08;;;;;;;7.70;1.80;;;;;;;7.90;100.00;100827.03;105330;1260;73670;-55
2023/04/18 01:17:37;;;;;;;3.60;1.30;;;;;;;7.92;100.00;100826.17;105206;1259;68626;-54
2023/04/18 01:20:06;;;;;;;7.60;1.70;;;;;;;7.91;100.00;100825.88;105401;1260;72185;-53
2023/04/18 01:22:35;;;;;;;6.00;1.90;;;;;;;7.89;100.00;100824.50;105618;1259;61010;-57
2023/04/18 01:25:08;;;;;;;4.90;1.40;;;;;;;7.86;100.00;100823.41;105372;1258;62553;-55
2023/04/18 01:27:36;;;;;;;3.50;1.50;;;;;;;7.85;100.00;100820.94;105323;1262;74841;-53
2023/04/18 01:30:06;;;;;;;4.30;1.80;;;;;;;7.85;100.00;100818.09;105396;1260;68596;-54
2023/04/18 01:32:35;;;;;;;3.00;1.30;;;;;;;7.84;100.00;100817.97;105297;1262;74200;-59
2023/04/18 01:35:04;;;;;;;3.80;1.20;;;;;;;7.83;100.00;100816.17;105346;1259;60663;-55
2023/04/18 01:37:34;;;;;;;5.10;1.60;;;;;;;7.81;100.00;100811.98;105260;1260;61821;-54
2023/04/18 01:40:03;;;;;;;4.60;1.50;;;;;;;7.76;100.00;100810.71;105359;1259;74599;-54
2023/04/18 01:42:31;;;;;;;3.90;1.50;;;;;;;7.74;100.00;100817.67;105373;1259;67841;-57
2023/04/18 01:45:01;;;;;;;6.20;1.70;;;;;;;7.74;100.00;100815.48;105301;1260;74196;-54
2023/04/18 01:47:29;;;;;;;4.30;1.60;;;;;;;7.72;100.00;100813.70;105347;1260;60511;-55
2023/04/18 01:49:58;;;;;;;3.50;1.30;;;;;;;7.72;100.00;100814.79;105425;1259;60876;-54
2023/04/18 01:52:29;;;;;;;10.60;2.20;;;;;;;7.69;100.00;100811.98;105344;1262;75311;-58
2023/04/18 01:54:58;;;;;;;6.10;1.50;;;;;;;7.66;100.00;100817.64;105352;1260;67659;-54
2023/04/18 01:57:27;;;;;;;8.00;1.70;;;;;;;7.64;100.00;100818.40;105307;1260;72946;-53
2023/04/18 01:59:56;;;;;;;3.10;1.40;;;;;;;7.60;100.00;100821.02;105216;1258;61282;-54
2023/04/18 02:02:24;;;;;;;4.50;1.10;;;;;;;7.55;100.00;100818.14;105574;1258;60690;-57
2023/04/18 02:04:53;;;;;;;6.50;1.20;;;;;;;7.51;100.00;100819.79;104945;1262;75969;-53
2023/04/18 02:07:21;;;;;;;7.30;1.80;;;;;;;7.46;100.00;100817.52;105209;1259;68571;-53
2023/04/18 02:09:50;;;;;;;6.40;1.50;;;;;;;7.43;100.00;100813.71;105151;1262;74539;-54
2023/04/18 02:12:18;;;;;;;3.70;1.40;;;;;;;7.37;100.00;100818.18;105363;1260;61537;-54
2023/04/18 02:14:50;;;;;;;4.30;1.40;;;;;;;7.33;100.00;100814.83;105377;1259;62490;-55
2023/04/18 02:17:20;;;;;;;5.20;1.40;;;;;;;7.30;100.00;100814.36;105293;1260;75082;-58
2023/04/18 02:19:52;;;;;;;7.50;1.40;;;;;;;7.27;100.00;100814.00;105370;1262;68108;-54
2023/04/18 02:22:20;;;;;;;6.80;1.40;;;;;;;7.26;100.00;100818.27;105211;1264;74222;-57
2023/04/18 02:24:49;;;;;;;4.70;1.30;;;;;;;7.26;100.00;100817.52;105319;1260;60543;-54
2023/04/18 02:27:17;;;;;;;4.90;1.40;;;;;;;7.23;100.00;100819.50;105320;1259;61815;-57
2023/04/18 02:29:46;;;;;;;9.60;1.80;;;;;;;7.21;100.00;100819.94;105318;1259;74204;-54
2023/04/18 02:32:15;;;;;;;4.20;1.40;;;;;;;7.21;100.00;100820.42;105345;1259;67543;-55
2023/04/18 02:34:44;;;;;;;7.80;1.50;;;;;;;7.20;100.00;100816.62;105399;1260;73998;-55
2023/04/18 02:37:13;;;;;;;3.70;0.90;;;;;;;7.18;100.00;100819.99;105326;1258;61205;-57
2023/04/18 02:39:41;;;;;;;13.10;2.10;;;;;;;7.17;100.00;100816.73;105501;1260;61910;-57
2023/04/18 02:42:10;;;;;;;3.80;1.40;;;;;;;7.16;100.00;100817.86;105666;1259;74790;-55
2023/04/18 02:44:38;;;;;;;5.30;1.50;;;;;;;7.16;100.00;100819.72;105457;1259;68678;-59
2023/04/18 02:47:07;;;;;;;7.80;1.90;;;;;;;7.16;100.00;100819.20;105012;1258;72595;-56
2023/04/18 02:49:37;;;;;;;4.10;1.50;;;;;;;7.15;100.00;100819.29;105206;1258;61114;-57
2023/04/18 02:52:06;;;;;;;8.50;1.50;;;;;;;7.16;100.00;100819.69;105343;1264;61396;-55
2023/04/18 02:54:35;;;;;;;5.30;1.10;;;;;;;7.12;100.00;100811.83;105432;1262;75258;-59
2023/04/18 02:57:07;;;;;;;6.90;2.00;;;;;;;7.13;100.00;100816.19;105397;1259;67595;-54
2023/04/18 02:59:53;;;;;;;4.70;1.50;;;;;;;7.15;100.00;100812.92;105273;1260;73805;-54
2023/04/18 03:02:41;;;;;;;4.20;1.10;;;;;;;7.16;100.00;100810.59;105363;1262;61698;-53
2023/04/18 03:05:45;;;;;;;4.10;1.20;;;;;;;7.19;100.00;100807.17;104850;1265;61976;-54
2023/04/18 03:08:15;;;;;;;11.60;2.80;;;;;;;7.21;100.00;100808.66;105491;1262;75741;-55
2023/04/18 03:10:44;;;;;;;5.40;1.70;;;;;;;7.25;100.00;100803.50;105376;1260;67564;-54
2023/04/18 03:13:12;;;;;;;7.90;1.50;;;;;;;7.30;100.00;100809.05;105169;1261;74139;-56
2023/04/18 03:15:41;;;;;;;3.90;1.20;;;;;;;7.33;100.00;100803.36;105185;1264;60657;-55
2023/04/18 03:18:11;;;;;;;6.30;1.50;;;;;;;7.37;100.00;100791.23;105326;1260;60586;-54
2023/04/18 03:20:40;;;;;;;6.10;1.50;;;;;;;7.41;100.00;100784.59;105273;1260;75356;-53
2023/04/18 03:23:08;;;;;;;6.50;1.40;;;;;;;7.45;100.00;100785.95;105216;1260;69187;-54
2023/04/18 03:25:37;;;;;;;7.70;1.50;;;;;;;7.48;100.00;100783.41;105305;1262;73536;-53
2023/04/18 03:28:05;;;;;;;3.80;1.30;;;;;;;7.51;100.00;100786.36;105056;1260;60955;-56
2023/04/18 03:30:34;;;;;;;4.80;1.00;;;;;;;7.55;100.00;100786.31;105366;1258;61943;-54
2023/04/18 03:33:04;;;;;;;7.10;1.60;;;;;;;7.59;100.00;100787.52;105326;1260;73315;-54
2023/04/18 03:35:33;;;;;;;11.50;1.80;;;;;;;7.64;100.00;100789.33;105253;1262;68167;-54
2023/04/18 03:38:01;;;;;;;4.30;1.50;;;;;;;7.67;100.00;100788.42;105396;1259;72986;-55
2023/04/18 03:40:32;;;;;;;10.40;1.10;;;;;;;7.73;100.00;100793.05;105129;1263;60463;-54
2023/04/18 03:43:05;;;;;;;8.50;1.40;;;;;;;7.79;100.00;100788.14;105187;1262;60352;-54
2023/04/18 03:45:35;;;;;;;8.60;1.60;;;;;;;7.86;100.00;100783.56;105295;1260;75402;-56
2023/04/18 03:48:05;;;;;;;9.70;1.70;;;;;;;7.89;100.00;100778.00;105280;1260;67686;-53
2023/04/18 03:50:35;;;;;;;6.40;1.40;;;;;;;7.94;100.00;100773.33;105241;1264;74270;-54
2023/04/18 03:53:04;;;;;;;3.50;1.10;;;;;;;7.99;100.00;100775.05;105244;1259;60588;-52
2023/04/18 03:55:33;;;;;;;7.60;1.30;;;;;;;8.06;100.00;100774.89;105505;1262;60861;-57
2023/04/18 03:58:02;;;;;;;7.60;1.50;;;;;;;8.21;100.00;100775.17;105446;1258;74738;-56
2023/04/18 04:00:31;;;;;;;4.60;1.00;;;;;;;8.29;100.00;100776.56;105099;1259;68583;-55
2023/04/18 04:03:02;;;;;;;3.90;1.00;;;;;;;8.31;100.00;100771.87;105449;1265;73708;-53
2023/04/18 04:05:31;;;;;;;4.50;1.30;;;;;;;8.34;100.00;100778.86;105393;1258;60560;-54
2023/04/18 04:08:00;;;;;;;6.60;2.30;;;;;;;8.38;100.00;100778.99;105160;1259;61863;-57
2023/04/18 04:10:29;;;;;;;5.50;1.90;;;;;;;8.47;100.00;100774.08;105397;1262;75231;-56
2023/04/18 04:12:58;;;;;;;5.00;1.30;;;;;;;8.63;100.00;100769.34;105764;1261;68655;-56
2023/04/18 04:15:28;;;;;;;10.90;1.70;;;;;;;8.74;100.00;100772.69;105382;1259;74216;-53
2023/04/18 04:18:01;;;;;;;4.30;1.10;;;;;;;8.84;100.00;100775.82;105076;1260;60572;-53
2023/04/18 04:20:30;;;;;;;5.70;1.20;;;;;;;9.01;100.00;100765.06;105266;1259;61963;-54
2023/04/18 04:23:05;;;;;;;4.90;1.30;;;;;;;9.25;100.00;100761.65;105185;1260;73970;-53
2023/04/18 04:25:34;;;;;;;4.50;1.00;;;;;;;9.50;97.73;100753.42;105366;1258;67937;-53
2023/04/18 04:28:07;;;;;;;9.00;1.20;;;;;;;9.80;94.16;100753.14;105305;1264;73312;-55
2023/04/18 04:30:43;;;;;;;5.90;1.30;;;;;;;10.10;91.23;100749.86;105348;1259;60779;-57
2023/04/18 04:33:11;;;;;;;5.30;1.30;;;;;;;10.42;85.29;100761.50;105371;1260;61956;-54
2023/04/18 04:35:40;;;;;;;9.10;1.10;;;;;;;10.72;82.74;100752.14;105384;1259;75437;-54
2023/04/18 04:38:11;;;;;;;4.20;1.10;;;;;;;11.15;80.11;100748.86;105394;1261;66365;-54
2023/04/18 04:40:45;;;;;;;3.90;1.10;;;;;;;11.64;72.16;100753.31;105376;1260;73620;-57
2023/04/18 04:43:15;;;;;;;6.30;1.70;;;;;;;11.86;65.66;100755.73;105460;1259;61682;-54
2023/04/18 04:45:45;;;;;;;4.40;1.20;;;;;;;11.96;63.90;100756.23;105187;1260;61747;-54
2023/04/18 04:48:14;;;;;;;6.30;2.10;;;;;;;11.92;60.56;100760.48;105315;1260;75348;-54
2023/04/18 04:50:43;;;;;;;5.50;1.20;;;;;;;11.73;62.43;100757.63;105465;1260;68233;-57
2023/04/18 04:53:11;;;;;;;4.70;1.00;;;;;;;11.47;66.60;100750.92;105129;1258;74111;-54
2023/04/18 04:55:40;;;;;;;6.00;1.10;;;;;;;11.20;70.21;100753.98;105354;1260;61296;-54
2023/04/18 04:58:09;;;;;;;3.20;0.90;;;;;;;10.93;74.12;100755.30;105336;1260;62139;-53
2023/04/18 05:00:46;;;;;;;5.30;1.00;;;;;;;10.69;77.97;100754.02;105451;1259;73689;-55
2023/04/18 05:03:15;;;;;;;5.60;1.10;;;;;;;10.49;83.15;100759.70;105311;1259;68590;-55
2023/04/18 05:05:44;;;;;;;5.30;1.50;;;;;;;10.33;86.15;100760.79;105192;1264;72881;-54
2023/04/18 05:08:13;;;;;;;4.70;1.20;;;;;;;10.19;89.91;100763.84;105317;1262;61878;-54
2023/04/18 05:10:42;;;;;;;4.50;1.10;;;;;;;10.14;92.53;100768.28;105028;1258;62080;-58
2023/04/18 05:13:10;;;;;;;7.10;1.30;;;;;;;10.14;97.90;100767.86;105345;1259;75760;-54
2023/04/18 05:15:39;;;;;;;5.10;1.50;;;;;;;10.18;97.63;100780.96;105391;1259;68441;-54
2023/04/18 05:18:08;;;;;;;4.40;1.30;;;;;;;10.15;97.20;100774.50;105391;1259;73579;-57
2023/04/18 05:20:36;;;;;;;4.10;1.30;;;;;;;10.14;99.39;100783.52;105445;1259;62638;-55
2023/04/18 05:23:04;;;;;;;4.00;1.20;;;;;;;10.14;100.00;100781.44;105026;1262;60912;-55
2023/04/18 05:25:33;;;;;;;6.10;1.20;;;;;;;10.19;100.00;100784.91;105310;1259;74992;-54
2023/04/18 05:28:07;;;;;;;4.50;1.50;;;;;;;10.25;100.00;100797.58;105357;1262;67645;-55
2023/04/18 05:30:35;;;;;;;4.10;1.30;;;;;;;10.31;100.00;100788.45;105479;1262;73648;-56
2023/04/18 05:33:04;;;;;;;3.80;1.60;;;;;;;10.36;100.00;100795.88;105431;1259;61235;-54
2023/04/18 05:35:32;;;;;;;4.70;1.10;;;;;;;10.42;100.00;100798.16;105311;1259;61822;-55
2023/04/18 05:38:01;;;;;;;6.70;1.40;;;;;;;10.49;100.00;100798.26;105401;1259;75740;-56
2023/04/18 05:40:30;;;;;;;8.80;1.80;;;;;;;10.58;100.00;100793.34;105264;1260;68788;-61
2023/04/18 05:42:59;;;;;;;6.80;1.40;;;;;;;10.69;99.96;100792.45;105401;1262;73892;-56
2023/04/18 05:45:28;;;;;;;4.40;1.50;;;;;;;10.87;100.00;100790.26;104999;1259;61889;-54
2023/04/18 05:47:57;;;;;;;4.80;1.70;;;;;;;11.05;95.13;100789.47;105432;1259;61660;-55
2023/04/18 05:50:25;;;;;;;5.30;1.50;;;;;;;11.17;94.07;100779.24;105678;1259;75348;-57
2023/04/18 05:52:54;;;;;;;6.50;1.40;;;;;;;11.30;92.76;100786.10;105165;1259;68990;-54
2023/04/18 05:55:22;;;;;;;4.60;1.40;;;;;;;11.39;90.70;100779.18;105311;1262;73319;-55
2023/04/18 05:57:51;;;;;;;7.10;2.10;;;;;;;11.44;90.92;100772.58;105342;1262;61284;-56
2023/04/18 06:00:20;;;;;;;8.10;2.00;;;;;;;11.49;89.30;100779.11;105125;1260;61128;-55
2023/04/18 06:02:49;;;;;;;6.10;1.50;;;;;;;11.57;90.37;100769.29;105514;1262;75496;-56
2023/04/18 06:05:18;;;;;;;8.10;2.40;;;;;;;11.80;91.16;100764.63;105468;1259;67448;-57
2023/04/18 06:07:47;;;;;;;6.20;1.90;;;;;;;12.09;90.12;100767.63;105398;1259;74252;-59
2023/04/18 06:10:16;;;;;;;8.30;1.80;;;;;;;12.37;86.75;100762.55;105157;1264;61869;-56
2023/04/18 06:12:44;;;;;;;5.90;1.80;;;;;;;12.64;83.96;100767.55;105311;1260;61799;-56
2023/04/18 06:15:13;;;;;;;6.30;1.60;;;;;;;12.94;79.43;100767.56;105360;1262;76519;-55
2023/04/18 06:17:41;;;;;;;6.60;1.60;;;;;;;13.28;75.33;100759.89;105612;1262;67271;-59
2023/04/18 06:20:10;;;;;;;6.00;1.60;;;;;;;13.57;72.58;100756.18;105362;1270;74561;-55
2023/04/18 06:22:39;;;;;;;7.00;1.90;;;;;;;13.87;68.76;100763.31;105467;1260;61240;-56
2023/04/18 06:25:08;;;;;;;5.90;1.90;;;;;;;13.94;64.92;100768.13;105137;1262;61333;-56
2023/04/18 06:27:37;;;;;;;5.50;2.00;;;;;;;13.89;63.93;100754.95;105441;1259;74896;-57
2023/04/18 06:30:07;;;;;;;6.70;2.20;;;;;;;13.92;65.25;100755.13;105390;1262;67881;-56
2023/04/18 06:32:35;;;;;;;5.20;2.00;;;;;;;14.08;67.36;100748.92;105159;1259;73970;-59
2023/04/18 06:35:04;;;;;;;11.20;2.60;;;;;;;14.14;65.88;100752.98;105379;1262;61361;-56
2023/04/18 06:37:33;;;;;;;7.90;2.20;;;;;;;14.08;66.85;100749.90;105373;1260;61978;-59
2023/04/18 06:40:02;;;;;;;8.00;2.50;;;;;;;14.15;67.16;100750.70;105242;1264;76138;-55
2023/04/18 06:42:31;;;;;;;5.10;2.30;;;;;;;14.25;66.75;100760.94;104974;1262;68492;-55
2023/04/18 06:44:59;;;;;;;7.60;2.90;;;;;;;14.33;68.52;100758.65;105313;1258;74188;-54
2023/04/18 06:47:28;;;;;;;7.80;2.50;;;;;;;14.45;69.29;100760.48;105572;1262;61226;-55
2023/04/18 06:49:57;;;;;;;7.50;2.30;;;;;;;14.57;66.01;100762.85;105222;1260;61320;-54
2023/04/18 06:52:25;;;;;;;7.50;2.50;;;;;;;14.67;65.26;100759.73;105444;1260;75646;-59
2023/04/18 06:54:54;;;;;;;6.10;2.10;;;;;;;14.77;63.42;100747.13;105343;1262;66889;-55
2023/04/18 06:57:23;;;;;;;6.30;2.90;;;;;;;14.75;66.97;100743.48;105368;1259;74208;-57
2023/04/18 06:59:51;;;;;;;11.70;2.60;;;;;;;14.93;65.32;100744.53;105099;1265;61327;-56
2023/04/18 07:02:20;;;;;;;5.10;2.30;;;;;;;15.04;64.10;100740.11;105475;1262;61142;-55
2023/04/18 07:04:49;;;;;;;9.50;3.00;;;;;;;15.06;65.56;100739.50;105485;1260;75035;-57
2023/04/18 07:07:17;;;;;;;9.50;2.90;;;;;;;15.18;65.88;100731.27;105170;1262;67550;-55
2023/04/18 07:09:47;;;;;;;7.70;2.80;;;;;;;15.41;64.41;100728.44;105122;1262;74333;-55
2023/04/18 07:12:16;;;;;;;9.90;2.50;;;;;;;15.56;61.30;100718.27;105446;1261;61247;-55
2023/04/18 07:14:45;;;;;;;7.30;2.80;;;;;;;15.65;60.09;100719.49;105332;1259;61261;-56
2023/04/18 07:17:14;;;;;;;7.80;2.30;;;;;;;15.65;57.77;100726.94;105420;1259;74796;-56
2023/04/18 07:19:43;;;;;;;5.10;1.80;;;;;;;15.64;58.58;100719.98;105166;1262;67051;-56
2023/04/18 07:22:11;;;;;;;9.10;2.90;;;;;;;15.61;59.85;100718.56;105223;1259;73170;-56
2023/04/18 07:24:40;;;;;;;9.00;2.40;;;;;;;15.62;61.52;100712.42;105239;1258;61728;-56
2023/04/18 07:27:08;;;;;;;11.00;4.00;;;;;;;15.74;63.03;100709.80;105184;1259;61950;-56
2023/04/18 07:29:37;;;;;;;9.40;3.20;;;;;;;15.91;63.07;100712.63;105239;1259;76227;-58
2023/04/18 07:32:05;;;;;;;9.10;3.40;;;;;;;16.11;59.68;100698.19;105302;1259;68784;-56
2023/04/18 07:34:36;;;;;;;7.10;2.90;;;;;;;16.18;56.69;100704.35;105224;1259;74247;-57
2023/04/18 07:37:05;;;;;;;9.20;3.20;;;;;;;16.07;55.47;100706.78;105236;1262;61969;-56
2023/04/18 07:39:35;;;;;;;8.50;2.80;;;;;;;15.86;58.78;100701.84;105493;1262;61122;-58
2023/04/18 07:42:03;;;;;;;8.60;3.40;;;;;;;15.93;59.51;100700.16;105405;1259;76243;-55
2023/04/18 07:44:34;;;;;;;15.00;6.60;;;;;;;16.02;58.30;100698.06;105484;1262;68583;-58
2023/04/18 07:47:02;;;;;;;14.30;6.60;;;;;;;16.06;60.65;100694.41;105231;1262;73100;-55
2023/04/18 07:49:31;;;;;;;15.40;7.80;;;;;;;16.21;60.05;100675.73;105415;1260;61924;-55
2023/04/18 07:51:59;;;;;;;12.90;3.00;;;;;;;16.37;58.23;100675.01;105379;1262;61260;-55
2023/04/18 07:54:28;;;;;;;8.60;3.20;;;;;;;16.40;56.49;100681.27;105274;1260;74050;-58
2023/04/18 07:56:57;;;;;;;8.10;2.80;;;;;;;16.41;55.03;100677.46;105059;1262;67046;-55
2023/04/18 07:59:27;;;;;;;10.30;3.20;;;;;;;16.41;55.64;100668.15;105384;1262;73194;-58
2023/04/18 08:01:56;;;;;;;10.20;2.60;;;;;;;16.55;56.19;100663.60;105151;1262;61677;-58
2023/04/18 08:04:24;;;;;;;7.80;2.80;;;;;;;16.73;55.10;100658.85;105512;1259;61903;-59
2023/04/18 08:06:57;;;;;;;12.10;3.60;;;;;;;16.86;56.05;100653.70;105181;1260;76814;-56
2023/04/18 08:09:25;;;;;;;7.80;2.60;;;;;;;17.05;56.07;100650.58;105225;1262;68405;-55
2023/04/18 08:11:55;;;;;;;8.40;3.20;;;;;;;17.19;51.22;100656.64;105342;1259;74185;-54
2023/04/18 08:14:24;;;;;;;7.50;3.30;;;;;;;17.21;49.36;100659.77;105666;1262;61894;-56
2023/04/18 08:16:52;;;;;;;8.10;3.50;;;;;;;17.06;48.74;100648.88;105276;1262;61261;-56
2023/04/18 08:19:20;;;;;;;11.80;3.60;;;;;;;17.01;50.40;100650.09;105287;1260;75726;-57
2023/04/18 08:21:50;;;;;;;9.90;2.90;;;;;;;17.05;49.06;100670.00;105245;1260;68689;-56
2023/04/18 08:24:18;;;;;;;7.90;2.60;;;;;;;16.88;49.41;100687.63;105737;1259;74228;-54
2023/04/18 08:26:46;;;;;;;7.10;2.10;;;;;;;16.71;51.05;100670.65;105397;1259;61758;-54
2023/04/18 08:29:15;;;;;;;8.10;2.50;;;;;;;16.72;52.94;100665.81;105415;1262;61795;-58
2023/04/18 08:31:43;;;;;;;10.70;2.50;;;;;;;16.83;54.72;100667.98;105092;1260;74660;-55
2023/04/18 08:34:12;;;;;;;6.70;2.40;;;;;;;17.03;55.67;100666.20;105323;1260;68912;-56
2023/04/18 08:36:40;;;;;;;7.70;3.00;;;;;;;17.21;54.07;100668.61;105205;1262;74310;-56
2023/04/18 08:39:09;;;;;;;9.50;2.60;;;;;;;17.31;50.45;100664.38;105231;1262;61237;-55
2023/04/18 08:41:38;;;;;;;8.30;3.50;;;;;;;17.27;49.62;100667.70;105296;1259;61597;-55
2023/04/18 08:44:07;;;;;;;12.80;4.40;;;;;;;17.29;49.17;100664.36;105311;1260;76381;-55
2023/04/18 08:46:36;;;;;;;11.40;3.20;;;;;;;17.35;49.97;100663.86;105505;1260;67113;-56
2023/04/18 08:49:05;;;;;;;9.50;2.80;;;;;;;17.47;51.41;100665.40;105318;1260;73998;-55
2023/04/18 08:51:34;;;;;;;8.80;2.50;;;;;;;17.57;49.29;100666.63;105187;1262;61802;-55
2023/04/18 08:54:05;;;;;;;10.70;3.80;;;;;;;17.55;47.80;100674.89;105194;1260;61748;-56
2023/04/18 08:56:36;;;;;;;7.90;3.30;;;;;;;17.55;47.71;100677.70;105236;1259;75076;-58
2023/04/18 08:59:04;;;;;;;10.00;2.90;;;;;;;17.52;48.60;100668.40;105321;1260;68541;-56
2023/04/18 09:01:57;;;;;;;10.80;2.40;;;;;;;17.48;49.76;100667.48;105352;1262;74594;-57
2023/04/18 09:04:43;;;;;;;10.30;2.80;;;;;;;17.49;51.60;100663.10;105233;1260;61757;-58
2023/04/18 09:07:13;;;;;;;10.30;2.90;;;;;;;17.47;51.97;100666.93;105290;1259;61887;-57
2023/04/18 09:09:44;;;;;;;7.40;2.50;;;;;;;17.34;52.03;100658.39;105251;1259;75163;-56
2023/04/18 09:12:14;;;;;;;8.30;2.90;;;;;;;17.18;51.74;100656.39;105458;1260;67613;-57
2023/04/18 09:14:45;;;;;;;10.30;2.90;;;;;;;16.98;51.60;100653.00;105417;1260;73084;-57
2023/04/18 09:17:30;;;;;;;9.50;2.40;;;;;;;16.78;54.05;100648.98;105512;1262;61257;-57
2023/04/18 09:20:00;;;;;;;9.10;3.10;;;;;;;16.73;57.40;100654.06;105400;1262;62071;-56
2023/04/18 09:22:46;;;;;;;9.90;2.80;;;;;;;16.59;57.10;100648.64;105422;1262;75863;-56
2023/04/18 09:25:26;;;;;;;8.90;2.60;;;;;;;16.32;59.24;100646.42;105048;1260;68559;-56
2023/04/18 09:28:00;;;;;;;13.80;2.90;;;;;;;16.11;62.99;100645.27;104999;1259;73421;-56
2023/04/18 09:30:33;;;;;;;7.60;2.60;;;;;;;16.01;66.37;100639.65;105261;1262;61369;-56
2023/04/18 09:33:03;;;;;;;6.30;2.00;;;;;;;16.12;70.13;100633.70;105387;1262;61260;-54
2023/04/18 09:35:32;;;;;;;11.40;3.10;;;;;;;16.36;70.42;100650.56;105527;1262;76367;-58
2023/04/18 09:38:00;;;;;;;9.20;2.50;;;;;;;16.63;67.70;100630.48;105319;1260;68033;-55
2023/04/18 09:40:29;;;;;;;9.00;3.00;;;;;;;16.91;69.10;100621.00;105362;1262;74091;-55
2023/04/18 09:42:58;;;;;;;10.00;3.70;;;;;;;17.22;62.80;100622.63;105355;1261;61369;-57
2023/04/18 09:45:27;;;;;;;11.50;3.10;;;;;;;17.44;61.98;100620.86;105576;1262;62367;-55
2023/04/18 09:47:56;;;;;;;6.80;2.60;;;;;;;17.74;58.57;100615.73;105188;1262;75626;-54
2023/04/18 09:50:24;;;;;;;7.40;3.10;;;;;;;17.88;55.67;100616.98;105251;1260;68668;-55
2023/04/18 09:52:53;;;;;;;7.30;2.50;;;;;;;18.00;56.76;100615.25;105306;1262;73223;-57
2023/04/18 09:55:21;;;;;;;9.30;2.20;;;;;;;18.14;54.64;100599.64;105248;1262;61330;-55
2023/04/18 09:57:50;;;;;;;8.50;2.10;;;;;;;18.20;54.75;100601.41;105260;1264;61278;-55
2023/04/18 10:00:24;;;;;;;6.10;2.40;;;;;;;18.21;54.28;100599.05;105043;1259;75544;-55
2023/04/18 10:02:56;;;;;;;11.10;2.50;;;;;;;18.17;53.37;100601.88;105266;1262;67490;-58
2023/04/18 10:05:27;;;;;;;7.60;1.90;;;;;;;18.09;55.68;100607.66;105427;1262;74261;-54
2023/04/18 10:07:56;;;;;;;6.70;2.50;;;;;;;18.15;56.13;100613.75;105179;1260;61263;-56
2023/04/18 10:10:25;;;;;;;8.50;2.10;;;;;;;18.23;54.53;100611.09;105262;1262;63034;-55
2023/04/18 10:12:55;;;;;;;6.70;1.90;;;;;;;18.36;56.78;100611.15;105163;1262;76240;-57
2023/04/18 10:15:25;;;;;;;5.20;2.30;;;;;;;18.51;54.10;100597.84;105183;1260;67913;-55
2023/04/18 10:17:58;;;;;;;8.70;2.50;;;;;;;18.59;54.25;100609.73;105201;1262;74242;-54
2023/04/18 10:20:33;;;;;;;6.30;2.30;;;;;;;18.65;51.05;100604.37;105157;1262;62371;-56
2023/04/18 10:23:31;;;;;;;6.80;2.20;;;;;;;18.58;54.16;100592.21;105281;1257;61758;-55
2023/04/18 10:26:00;;;;;;;9.40;2.20;;;;;;;18.71;51.98;100590.71;105348;1261;76234;-55
2023/04/18 10:28:49;;;;;;;9.90;2.10;;;;;;;18.70;51.75;100583.02;105474;1262;67501;-58
2023/04/18 10:31:22;;;;;;;8.10;2.30;;;;;;;18.65;51.83;100605.59;105258;1262;74172;-55
2023/04/18 10:34:04;;;;;;;8.60;1.70;;;;;;;18.52;50.79;100597.30;105290;1260;61686;-56
2023/04/18 10:37:05;;;;;;;6.10;2.00;;;;;;;18.40;52.61;100601.16;105320;1262;61370;-55
2023/04/18 10:39:56;;;;;;;15.60;3.60;;;;;;;18.44;54.54;100605.83;105504;1259;75219;-57
2023/04/18 10:42:47;;;;;;;7.80;1.90;;;;;;;18.72;53.34;100606.83;105518;1261;68159;-58
2023/04/18 10:45:22;;;;;;;7.90;2.10;;;;;;;18.89;49.83;100599.84;105366;1259;72317;-55
2023/04/18 10:48:13;;;;;;;10.50;3.60;;;;;;;18.85;52.23;100593.50;105276;1262;61227;-54
2023/04/18 10:51:14;;;;;;;7.40;2.10;;;;;;;18.92;50.74;100597.36;105444;1259;61179;-58
2023/04/18 10:53:49;;;;;;;4.70;1.70;;;;;;;19.05;50.26;100590.31;105118;1261;74607;-55
2023/04/18 10:56:18;;;;;;;6.80;1.90;;;;;;;19.03;48.31;100594.41;105094;1263;67779;-59
2023/04/18 10:58:50;;;;;;;5.80;2.10;;;;;;;18.85;47.82;100589.66;105123;1259;74257;-55
2023/04/18 11:01:28;;;;;;;5.30;1.80;;;;;;;18.69;48.66;100578.51;105234;1259;61971;-58
2023/04/18 11:04:00;;;;;;;9.80;2.30;;;;;;;18.67;50.26;100585.85;105422;1262;61511;-56
2023/04/18 11:06:30;;;;;;;7.00;2.40;;;;;;;18.82;51.35;100581.04;105303;1262;75372;-55
2023/04/18 11:09:12;;;;;;;9.00;1.90;;;;;;;18.89;48.91;100576.61;105139;1265;67602;-55
2023/04/18 11:11:40;;;;;;;11.60;2.10;;;;;;;18.67;48.41;100577.66;105113;1262;74185;-56
2023/04/18 11:14:09;;;;;;;7.20;2.30;;;;;;;18.34;50.26;100578.38;105113;1260;61261;-56
2023/04/18 11:16:38;;;;;;;12.40;2.00;;;;;;;18.09;51.49;100573.70;105233;1259;61653;-55
2023/04/18 11:19:20;;;;;;;10.70;2.20;;;;;;;17.91;53.09;100569.15;105403;1262;76136;-56
2023/04/18 11:21:50;;;;;;;7.30;2.50;;;;;;;17.86;54.12;100568.33;105226;1262;67506;-56
2023/04/18 11:24:22;;;;;;;9.10;2.00;;;;;;;17.88;54.54;100558.80;105337;1262;74243;-55
2023/04/18 11:26:54;;;;;;;6.40;2.10;;;;;;;17.92;54.19;100556.15;105316;1260;61569;-58
2023/04/18 11:29:23;;;;;;;10.10;3.30;;;;;;;17.98;52.90;100557.79;105419;1261;62051;-55
2023/04/18 11:31:52;;;;;;;6.90;2.20;;;;;;;18.07;51.31;100555.50;105292;1262;75028;-54